sensor_id;sensor_type;location;lat;lon;timestamp;temperature;humidity
69393;SHT31;56582;44.624;20.378;2022-12-18T00:00:44;2.49;86.76
69393;SHT31;56582;44.624;20.378;2022-12-18T00:03:12;2.73;86.41
69393;SHT31;56582;44.624;20.378;2022-12-18T00:05:37;2.60;86.12
69393;SHT31;56582;44.624;20.378;2022-12-18T00:08:02;2.54;86.30
69393;SHT31;56582;44.624;20.378;2022-12-18T00:10:28;2.85;85.72
69393;SHT31;56582;44.624;20.378;2022-12-18T00:12:53;2.93;85.23
69393;SHT31;56582;44.624;20.378;2022-12-18T00:15:19;2.71;85.15
69393;SHT31;56582;44.624;20.378;2022-12-18T00:17:45;2.46;85.99
69393;SHT31;56582;44.624;20.378;2022-12-18T00:20:10;2.52;86.12
69393;SHT31;56582;44.624;20.378;2022-12-18T00:22:36;2.36;86.16
69393;SHT31;56582;44.624;20.378;2022-12-18T00:25:01;2.28;86.47
69393;SHT31;56582;44.624;20.378;2022-12-18T00:27:27;2.42;86.41
69393;SHT31;56582;44.624;20.378;2022-12-18T00:29:53;2.49;86.31
69393;SHT31;56582;44.624;20.378;2022-12-18T00:32:18;2.36;86.87
69393;SHT31;56582;44.624;20.378;2022-12-18T00:34:43;2.34;86.71
69393;SHT31;56582;44.624;20.378;2022-12-18T00:37:09;2.39;87.20
69393;SHT31;56582;44.624;20.378;2022-12-18T00:39:34;2.43;86.24
69393;SHT31;56582;44.624;20.378;2022-12-18T00:42:00;2.39;86.53
69393;SHT31;56582;44.624;20.378;2022-12-18T00:44:44;2.47;86.65
69393;SHT31;56582;44.624;20.378;2022-12-18T00:47:09;2.50;86.28
69393;SHT31;56582;44.624;20.378;2022-12-18T00:49:35;2.50;86.54
69393;SHT31;56582;44.624;20.378;2022-12-18T00:52:00;2.37;86.54
69393;SHT31;56582;44.624;20.378;2022-12-18T00:54:26;2.56;86.27
69393;SHT31;56582;44.624;20.378;2022-12-18T00:56:51;2.49;86.52
69393;SHT31;56582;44.624;20.378;2022-12-18T00:59:17;2.44;87.38
69393;SHT31;56582;44.624;20.378;2022-12-18T01:01:43;2.53;87.11
69393;SHT31;56582;44.624;20.378;2022-12-18T01:04:09;2.57;86.61
69393;SHT31;56582;44.624;20.378;2022-12-18T01:06:35;2.46;86.95
69393;SHT31;56582;44.624;20.378;2022-12-18T01:09:00;2.02;87.77
69393;SHT31;56582;44.624;20.378;2022-12-18T01:11:26;1.73;86.52
69393;SHT31;56582;44.624;20.378;2022-12-18T01:13:53;1.77;85.81
69393;SHT31;56582;44.624;20.378;2022-12-18T01:16:19;1.65;86.05
69393;SHT31;56582;44.624;20.378;2022-12-18T01:18:45;1.75;85.88
69393;SHT31;56582;44.624;20.378;2022-12-18T01:21:13;1.95;85.66
69393;SHT31;56582;44.624;20.378;2022-12-18T01:23:39;1.95;84.61
69393;SHT31;56582;44.624;20.378;2022-12-18T01:26:10;1.91;84.67
69393;SHT31;56582;44.624;20.378;2022-12-18T01:28:36;2.12;84.31
69393;SHT31;56582;44.624;20.378;2022-12-18T01:31:20;2.04;83.93
69393;SHT31;56582;44.624;20.378;2022-12-18T01:33:47;1.94;83.70
69393;SHT31;56582;44.624;20.378;2022-12-18T01:36:21;1.78;83.58
69393;SHT31;56582;44.624;20.378;2022-12-18T01:38:48;1.60;83.30
69393;SHT31;56582;44.624;20.378;2022-12-18T01:41:17;1.82;83.22
69393;SHT31;56582;44.624;20.378;2022-12-18T01:43:54;2.11;82.35
69393;SHT31;56582;44.624;20.378;2022-12-18T01:46:22;1.77;82.62
69393;SHT31;56582;44.624;20.378;2022-12-18T01:48:54;1.63;83.81
69393;SHT31;56582;44.624;20.378;2022-12-18T01:51:20;1.88;83.38
69393;SHT31;56582;44.624;20.378;2022-12-18T01:53:48;2.21;81.73
69393;SHT31;56582;44.624;20.378;2022-12-18T01:56:15;2.28;81.50
69393;SHT31;56582;44.624;20.378;2022-12-18T02:01:15;2.05;81.18
69393;SHT31;56582;44.624;20.378;2022-12-18T02:03:42;2.22;81.56
69393;SHT31;56582;44.624;20.378;2022-12-18T02:06:28;2.09;81.40
69393;SHT31;56582;44.624;20.378;2022-12-18T02:11:53;2.01;82.11
69393;SHT31;56582;44.624;20.378;2022-12-18T02:17:10;2.47;80.98
69393;SHT31;56582;44.624;20.378;2022-12-18T02:27:32;1.98;81.54
69393;SHT31;56582;44.624;20.378;2022-12-18T02:30:01;1.68;82.47
69393;SHT31;56582;44.624;20.378;2022-12-18T02:32:40;1.60;83.19
69393;SHT31;56582;44.624;20.378;2022-12-18T02:35:16;1.53;83.42
69393;SHT31;56582;44.624;20.378;2022-12-18T02:37:43;1.46;84.03
69393;SHT31;56582;44.624;20.378;2022-12-18T02:40:11;1.35;84.32
69393;SHT31;56582;44.624;20.378;2022-12-18T02:42:37;1.40;84.48
69393;SHT31;56582;44.624;20.378;2022-12-18T02:45:03;1.68;84.17
69393;SHT31;56582;44.624;20.378;2022-12-18T02:47:31;2.06;83.25
69393;SHT31;56582;44.624;20.378;2022-12-18T02:52:34;2.02;83.17
69393;SHT31;56582;44.624;20.378;2022-12-18T02:57:56;1.97;83.87
69393;SHT31;56582;44.624;20.378;2022-12-18T03:00:48;2.06;83.72
69393;SHT31;56582;44.624;20.378;2022-12-18T03:03:24;2.12;83.85
69393;SHT31;56582;44.624;20.378;2022-12-18T03:06:14;2.22;83.88
69393;SHT31;56582;44.624;20.378;2022-12-18T03:08:47;2.34;83.88
69393;SHT31;56582;44.624;20.378;2022-12-18T03:11:14;2.34;82.60
69393;SHT31;56582;44.624;20.378;2022-12-18T03:13:46;2.32;82.85
69393;SHT31;56582;44.624;20.378;2022-12-18T03:16:25;2.30;82.75
69393;SHT31;56582;44.624;20.378;2022-12-18T03:21:22;2.30;82.89
69393;SHT31;56582;44.624;20.378;2022-12-18T03:23:52;2.29;83.14
69393;SHT31;56582;44.624;20.378;2022-12-18T03:26:22;2.32;83.22
69393;SHT31;56582;44.624;20.378;2022-12-18T03:29:00;2.33;83.36
69393;SHT31;56582;44.624;20.378;2022-12-18T03:31:29;2.47;83.33
69393;SHT31;56582;44.624;20.378;2022-12-18T03:33:59;2.39;82.77
69393;SHT31;56582;44.624;20.378;2022-12-18T03:36:25;2.23;83.41
69393;SHT31;56582;44.624;20.378;2022-12-18T03:38:50;2.52;83.07
69393;SHT31;56582;44.624;20.378;2022-12-18T03:47:04;2.49;83.54
69393;SHT31;56582;44.624;20.378;2022-12-18T03:52:46;2.25;83.98
69393;SHT31;56582;44.624;20.378;2022-12-18T03:55:13;2.12;84.11
69393;SHT31;56582;44.624;20.378;2022-12-18T03:57:39;2.06;83.93
69393;SHT31;56582;44.624;20.378;2022-12-18T04:00:11;2.29;83.53
69393;SHT31;56582;44.624;20.378;2022-12-18T04:02:39;2.12;83.81
69393;SHT31;56582;44.624;20.378;2022-12-18T04:05:08;1.89;84.41
69393;SHT31;56582;44.624;20.378;2022-12-18T04:07:35;2.09;84.34
69393;SHT31;56582;44.624;20.378;2022-12-18T04:10:03;1.84;84.24
69393;SHT31;56582;44.624;20.378;2022-12-18T04:12:31;2.02;84.36
69393;SHT31;56582;44.624;20.378;2022-12-18T04:14:56;1.94;83.59
69393;SHT31;56582;44.624;20.378;2022-12-18T04:17:22;1.85;84.15
69393;SHT31;56582;44.624;20.378;2022-12-18T04:19:47;1.84;84.27
69393;SHT31;56582;44.624;20.378;2022-12-18T04:22:13;1.64;84.16
69393;SHT31;56582;44.624;20.378;2022-12-18T04:24:39;1.70;85.00
69393;SHT31;56582;44.624;20.378;2022-12-18T04:27:05;2.12;83.83
69393;SHT31;56582;44.624;20.378;2022-12-18T04:29:30;1.68;83.96
69393;SHT31;56582;44.624;20.378;2022-12-18T04:31:56;1.85;84.25
69393;SHT31;56582;44.624;20.378;2022-12-18T04:34:21;1.75;84.32
69393;SHT31;56582;44.624;20.378;2022-12-18T04:36:47;1.57;84.81
69393;SHT31;56582;44.624;20.378;2022-12-18T04:39:13;1.64;84.19
69393;SHT31;56582;44.624;20.378;2022-12-18T04:41:38;1.63;84.73
69393;SHT31;56582;44.624;20.378;2022-12-18T04:44:04;1.54;84.91
69393;SHT31;56582;44.624;20.378;2022-12-18T04:46:30;1.65;84.77
69393;SHT31;56582;44.624;20.378;2022-12-18T04:48:55;1.95;83.44
69393;SHT31;56582;44.624;20.378;2022-12-18T04:51:21;2.05;83.57
69393;SHT31;56582;44.624;20.378;2022-12-18T04:53:46;2.08;83.77
69393;SHT31;56582;44.624;20.378;2022-12-18T04:56:14;1.85;83.77
69393;SHT31;56582;44.624;20.378;2022-12-18T04:58:42;1.92;83.84
69393;SHT31;56582;44.624;20.378;2022-12-18T05:01:08;1.79;84.32
69393;SHT31;56582;44.624;20.378;2022-12-18T05:03:34;1.78;85.49
69393;SHT31;56582;44.624;20.378;2022-12-18T05:06:00;1.63;85.18
69393;SHT31;56582;44.624;20.378;2022-12-18T05:08:26;1.40;85.13
69393;SHT31;56582;44.624;20.378;2022-12-18T05:11:01;1.22;86.29
69393;SHT31;56582;44.624;20.378;2022-12-18T05:13:28;1.36;86.58
69393;SHT31;56582;44.624;20.378;2022-12-18T05:15:54;1.37;85.68
69393;SHT31;56582;44.624;20.378;2022-12-18T05:18:20;1.17;85.18
69393;SHT31;56582;44.624;20.378;2022-12-18T05:20:45;1.36;83.45
69393;SHT31;56582;44.624;20.378;2022-12-18T05:23:11;1.10;84.80
69393;SHT31;56582;44.624;20.378;2022-12-18T05:25:36;1.23;82.90
69393;SHT31;56582;44.624;20.378;2022-12-18T05:28:02;1.26;83.35
69393;SHT31;56582;44.624;20.378;2022-12-18T05:30:27;1.88;90.39
69393;SHT31;56582;44.624;20.378;2022-12-18T05:32:53;2.53;94.43
69393;SHT31;56582;44.624;20.378;2022-12-18T05:35:19;2.80;92.65
69393;SHT31;56582;44.624;20.378;2022-12-18T05:37:44;3.62;88.66
69393;SHT31;56582;44.624;20.378;2022-12-18T05:40:10;2.97;80.92
69393;SHT31;56582;44.624;20.378;2022-12-18T05:42:35;1.95;78.95
69393;SHT31;56582;44.624;20.378;2022-12-18T05:45:01;1.84;79.77
69393;SHT31;56582;44.624;20.378;2022-12-18T05:47:27;1.40;81.71
69393;SHT31;56582;44.624;20.378;2022-12-18T05:49:53;1.74;80.08
69393;SHT31;56582;44.624;20.378;2022-12-18T05:52:19;1.57;80.39
69393;SHT31;56582;44.624;20.378;2022-12-18T05:54:44;1.13;81.43
69393;SHT31;56582;44.624;20.378;2022-12-18T05:57:10;1.27;82.15
69393;SHT31;56582;44.624;20.378;2022-12-18T05:59:35;1.12;82.55
69393;SHT31;56582;44.624;20.378;2022-12-18T06:02:01;0.86;83.21
69393;SHT31;56582;44.624;20.378;2022-12-18T06:04:27;0.65;84.06
69393;SHT31;56582;44.624;20.378;2022-12-18T06:06:56;0.58;83.89
69393;SHT31;56582;44.624;20.378;2022-12-18T06:09:22;0.41;84.71
69393;SHT31;56582;44.624;20.378;2022-12-18T06:11:47;0.31;85.91
69393;SHT31;56582;44.624;20.378;2022-12-18T06:14:13;0.46;85.83
69393;SHT31;56582;44.624;20.378;2022-12-18T06:16:38;0.55;84.96
69393;SHT31;56582;44.624;20.378;2022-12-18T06:19:05;0.40;85.89
69393;SHT31;56582;44.624;20.378;2022-12-18T06:21:31;0.33;86.38
69393;SHT31;56582;44.624;20.378;2022-12-18T06:23:57;0.44;86.22
69393;SHT31;56582;44.624;20.378;2022-12-18T06:26:23;0.62;85.66
69393;SHT31;56582;44.624;20.378;2022-12-18T06:28:49;0.31;86.18
69393;SHT31;56582;44.624;20.378;2022-12-18T06:31:14;0.38;86.01
69393;SHT31;56582;44.624;20.378;2022-12-18T06:33:40;0.34;86.25
69393;SHT31;56582;44.624;20.378;2022-12-18T06:36:08;0.21;86.05
69393;SHT31;56582;44.624;20.378;2022-12-18T06:38:35;0.26;86.07
69393;SHT31;56582;44.624;20.378;2022-12-18T06:41:06;0.30;85.65
69393;SHT31;56582;44.624;20.378;2022-12-18T06:43:31;0.47;85.75
69393;SHT31;56582;44.624;20.378;2022-12-18T06:46:00;0.44;85.40
69393;SHT31;56582;44.624;20.378;2022-12-18T06:48:26;0.43;85.56
69393;SHT31;56582;44.624;20.378;2022-12-18T06:50:51;0.51;85.64
69393;SHT31;56582;44.624;20.378;2022-12-18T06:53:17;0.36;85.42
69393;SHT31;56582;44.624;20.378;2022-12-18T06:55:42;0.30;86.03
69393;SHT31;56582;44.624;20.378;2022-12-18T06:58:08;0.23;85.76
69393;SHT31;56582;44.624;20.378;2022-12-18T07:00:33;0.07;86.26
69393;SHT31;56582;44.624;20.378;2022-12-18T07:02:59;0.11;85.60
69393;SHT31;56582;44.624;20.378;2022-12-18T07:05:24;0.43;84.11
69393;SHT31;56582;44.624;20.378;2022-12-18T07:07:50;0.55;84.31
69393;SHT31;56582;44.624;20.378;2022-12-18T07:10:15;0.54;85.52
69393;SHT31;56582;44.624;20.378;2022-12-18T07:12:41;0.38;84.42
69393;SHT31;56582;44.624;20.378;2022-12-18T07:15:07;0.71;83.20
69393;SHT31;56582;44.624;20.378;2022-12-18T07:17:32;0.53;84.66
69393;SHT31;56582;44.624;20.378;2022-12-18T07:19:58;0.55;84.20
69393;SHT31;56582;44.624;20.378;2022-12-18T07:22:25;0.50;84.57
69393;SHT31;56582;44.624;20.378;2022-12-18T07:24:50;0.58;84.23
69393;SHT31;56582;44.624;20.378;2022-12-18T07:27:16;0.33;84.25
69393;SHT31;56582;44.624;20.378;2022-12-18T07:29:41;0.14;84.98
69393;SHT31;56582;44.624;20.378;2022-12-18T07:32:07;0.57;84.59
69393;SHT31;56582;44.624;20.378;2022-12-18T07:34:33;0.14;85.19
69393;SHT31;56582;44.624;20.378;2022-12-18T07:36:59;0.17;85.00
69393;SHT31;56582;44.624;20.378;2022-12-18T07:39:24;0.27;85.76
69393;SHT31;56582;44.624;20.378;2022-12-18T07:41:50;0.30;84.66
69393;SHT31;56582;44.624;20.378;2022-12-18T07:44:34;0.05;84.64
69393;SHT31;56582;44.624;20.378;2022-12-18T07:46:59;-0.01;85.53
69393;SHT31;56582;44.624;20.378;2022-12-18T07:49:24;0.10;85.43
69393;SHT31;56582;44.624;20.378;2022-12-18T07:51:50;-0.04;86.02
69393;SHT31;56582;44.624;20.378;2022-12-18T07:54:15;0.40;84.68
69393;SHT31;56582;44.624;20.378;2022-12-18T07:56:41;0.24;84.84
69393;SHT31;56582;44.624;20.378;2022-12-18T07:59:06;0.20;85.50
69393;SHT31;56582;44.624;20.378;2022-12-18T08:01:33;0.21;85.20
69393;SHT31;56582;44.624;20.378;2022-12-18T08:03:58;0.21;85.34
69393;SHT31;56582;44.624;20.378;2022-12-18T08:06:24;0.37;84.45
69393;SHT31;56582;44.624;20.378;2022-12-18T08:08:54;0.26;84.86
69393;SHT31;56582;44.624;20.378;2022-12-18T08:11:20;0.53;86.10
69393;SHT31;56582;44.624;20.378;2022-12-18T08:13:45;0.47;87.65
69393;SHT31;56582;44.624;20.378;2022-12-18T08:16:11;1.10;86.59
69393;SHT31;56582;44.624;20.378;2022-12-18T08:18:37;1.75;87.62
69393;SHT31;56582;44.624;20.378;2022-12-18T08:21:17;1.25;81.41
69393;SHT31;56582;44.624;20.378;2022-12-18T08:23:43;1.17;82.70
69393;SHT31;56582;44.624;20.378;2022-12-18T08:26:11;0.93;82.62
69393;SHT31;56582;44.624;20.378;2022-12-18T08:28:36;0.65;84.38
69393;SHT31;56582;44.624;20.378;2022-12-18T08:31:02;0.84;85.29
69393;SHT31;56582;44.624;20.378;2022-12-18T08:33:28;0.55;84.69
69393;SHT31;56582;44.624;20.378;2022-12-18T08:35:53;0.60;85.54
69393;SHT31;56582;44.624;20.378;2022-12-18T08:38:19;0.40;84.67
69393;SHT31;56582;44.624;20.378;2022-12-18T08:40:44;0.51;86.09
69393;SHT31;56582;44.624;20.378;2022-12-18T08:43:10;0.68;83.87
69393;SHT31;56582;44.624;20.378;2022-12-18T08:45:54;0.76;83.99
69393;SHT31;56582;44.624;20.378;2022-12-18T08:48:21;0.61;83.88
69393;SHT31;56582;44.624;20.378;2022-12-18T08:50:58;0.62;84.90
69393;SHT31;56582;44.624;20.378;2022-12-18T08:53:25;0.69;84.83
69393;SHT31;56582;44.624;20.378;2022-12-18T08:55:51;0.85;84.72
69393;SHT31;56582;44.624;20.378;2022-12-18T08:58:18;0.79;85.00
69393;SHT31;56582;44.624;20.378;2022-12-18T09:00:47;0.85;85.06
69393;SHT31;56582;44.624;20.378;2022-12-18T09:03:16;1.07;84.73
69393;SHT31;56582;44.624;20.378;2022-12-18T09:05:42;1.05;84.20
69393;SHT31;56582;44.624;20.378;2022-12-18T09:08:08;0.78;84.57
69393;SHT31;56582;44.624;20.378;2022-12-18T09:10:34;0.93;85.29
69393;SHT31;56582;44.624;20.378;2022-12-18T09:12:59;0.96;84.77
69393;SHT31;56582;44.624;20.378;2022-12-18T09:15:25;1.19;84.81
69393;SHT31;56582;44.624;20.378;2022-12-18T09:17:51;1.35;84.27
69393;SHT31;56582;44.624;20.378;2022-12-18T09:20:18;1.22;83.50
69393;SHT31;56582;44.624;20.378;2022-12-18T09:22:44;1.32;83.16
69393;SHT31;56582;44.624;20.378;2022-12-18T09:25:09;1.09;83.75
69393;SHT31;56582;44.624;20.378;2022-12-18T09:27:35;1.22;83.82
69393;SHT31;56582;44.624;20.378;2022-12-18T09:30:01;1.16;84.28
69393;SHT31;56582;44.624;20.378;2022-12-18T09:32:27;1.50;83.73
69393;SHT31;56582;44.624;20.378;2022-12-18T09:34:52;1.33;83.20
69393;SHT31;56582;44.624;20.378;2022-12-18T09:37:18;1.10;83.95
69393;SHT31;56582;44.624;20.378;2022-12-18T09:39:43;1.50;88.30
69393;SHT31;56582;44.624;20.378;2022-12-18T09:42:21;1.85;91.32
69393;SHT31;56582;44.624;20.378;2022-12-18T09:44:52;1.88;92.13
69393;SHT31;56582;44.624;20.378;2022-12-18T09:49:56;1.97;86.56
69393;SHT31;56582;44.624;20.378;2022-12-18T09:55:09;2.05;91.33
69393;SHT31;56582;44.624;20.378;2022-12-18T09:57:42;3.42;92.35
69393;SHT31;56582;44.624;20.378;2022-12-18T10:00:18;3.01;85.40
69393;SHT31;56582;44.624;20.378;2022-12-18T10:02:45;3.04;82.98
69393;SHT31;56582;44.624;20.378;2022-12-18T10:05:33;2.73;80.01
69393;SHT31;56582;44.624;20.378;2022-12-18T10:08:06;2.02;80.37
69393;SHT31;56582;44.624;20.378;2022-12-18T10:18:45;1.10;82.39
69393;SHT31;56582;44.624;20.378;2022-12-18T10:21:17;1.23;83.79
69393;SHT31;56582;44.624;20.378;2022-12-18T10:26:34;1.65;82.60
69393;SHT31;56582;44.624;20.378;2022-12-18T10:29:00;1.63;83.35
69393;SHT31;56582;44.624;20.378;2022-12-18T10:31:26;1.57;83.59
69393;SHT31;56582;44.624;20.378;2022-12-18T10:33:55;1.60;83.17
69393;SHT31;56582;44.624;20.378;2022-12-18T10:36:22;2.09;82.06
69393;SHT31;56582;44.624;20.378;2022-12-18T10:38:48;2.16;80.52
69393;SHT31;56582;44.624;20.378;2022-12-18T10:44:11;1.68;80.45
69393;SHT31;56582;44.624;20.378;2022-12-18T10:46:36;1.47;81.03
69393;SHT31;56582;44.624;20.378;2022-12-18T10:49:02;1.70;81.57
69393;SHT31;56582;44.624;20.378;2022-12-18T10:51:30;1.65;81.38
69393;SHT31;56582;44.624;20.378;2022-12-18T10:54:02;1.73;80.92
69393;SHT31;56582;44.624;20.378;2022-12-18T10:56:30;2.01;80.94
69393;SHT31;56582;44.624;20.378;2022-12-18T11:01:24;1.42;81.06
69393;SHT31;56582;44.624;20.378;2022-12-18T11:06:18;1.58;82.19
69393;SHT31;56582;44.624;20.378;2022-12-18T11:11:24;2.08;80.90
69393;SHT31;56582;44.624;20.378;2022-12-18T11:14:15;2.16;79.53
69393;SHT31;56582;44.624;20.378;2022-12-18T11:16:45;1.74;78.64
69393;SHT31;56582;44.624;20.378;2022-12-18T11:19:34;1.71;79.32
69393;SHT31;56582;44.624;20.378;2022-12-18T11:22:24;1.79;80.40
69393;SHT31;56582;44.624;20.378;2022-12-18T11:27:37;1.91;80.37
69393;SHT31;56582;44.624;20.378;2022-12-18T11:30:29;1.94;81.39
69393;SHT31;56582;44.624;20.378;2022-12-18T11:33:05;2.26;79.65
69393;SHT31;56582;44.624;20.378;2022-12-18T11:35:47;1.46;79.73
69393;SHT31;56582;44.624;20.378;2022-12-18T11:38:25;1.64;80.28
69393;SHT31;56582;44.624;20.378;2022-12-18T11:40:58;1.63;79.74
69393;SHT31;56582;44.624;20.378;2022-12-18T11:43:32;1.32;80.81
69393;SHT31;56582;44.624;20.378;2022-12-18T11:46:07;1.65;80.47
69393;SHT31;56582;44.624;20.378;2022-12-18T11:48:38;1.50;79.70
69393;SHT31;56582;44.624;20.378;2022-12-18T11:51:13;1.48;80.37
69393;SHT31;56582;44.624;20.378;2022-12-18T11:53:39;1.27;80.52
69393;SHT31;56582;44.624;20.378;2022-12-18T11:56:35;1.44;80.57
69393;SHT31;56582;44.624;20.378;2022-12-18T11:59:15;1.77;80.90
69393;SHT31;56582;44.624;20.378;2022-12-18T12:15:27;2.39;78.12
69393;SHT31;56582;44.624;20.378;2022-12-18T12:21:01;1.65;79.88
69393;SHT31;56582;44.624;20.378;2022-12-18T12:31:59;1.58;79.86
69393;SHT31;56582;44.624;20.378;2022-12-18T12:39:42;1.68;80.04
69393;SHT31;56582;44.624;20.378;2022-12-18T12:42:18;1.20;82.02
69393;SHT31;56582;44.624;20.378;2022-12-18T12:45:05;1.48;81.23
69393;SHT31;56582;44.624;20.378;2022-12-18T12:47:35;1.29;81.32
69393;SHT31;56582;44.624;20.378;2022-12-18T12:50:05;1.44;81.87
69393;SHT31;56582;44.624;20.378;2022-12-18T12:52:37;1.43;81.22
69393;SHT31;56582;44.624;20.378;2022-12-18T12:55:07;1.64;79.98
69393;SHT31;56582;44.624;20.378;2022-12-18T12:57:40;1.70;79.77
69393;SHT31;56582;44.624;20.378;2022-12-18T13:00:14;1.81;78.87
69393;SHT31;56582;44.624;20.378;2022-12-18T13:08:06;1.16;81.19
69393;SHT31;56582;44.624;20.378;2022-12-18T13:10:37;1.30;81.07
69393;SHT31;56582;44.624;20.378;2022-12-18T13:13:09;1.27;80.65
69393;SHT31;56582;44.624;20.378;2022-12-18T13:16:05;1.25;80.26
69393;SHT31;56582;44.624;20.378;2022-12-18T13:18:31;1.15;80.91
69393;SHT31;56582;44.624;20.378;2022-12-18T13:25:49;1.63;79.09
69393;SHT31;56582;44.624;20.378;2022-12-18T13:31:01;1.60;79.39
69393;SHT31;56582;44.624;20.378;2022-12-18T13:33:36;1.32;79.79
69393;SHT31;56582;44.624;20.378;2022-12-18T13:44:37;1.46;79.91
69393;SHT31;56582;44.624;20.378;2022-12-18T13:47:26;1.56;80.20
69393;SHT31;56582;44.624;20.378;2022-12-18T13:49:52;1.60;80.79
69393;SHT31;56582;44.624;20.378;2022-12-18T13:52:26;1.71;80.25
69393;SHT31;56582;44.624;20.378;2022-12-18T13:54:57;1.92;79.28
69393;SHT31;56582;44.624;20.378;2022-12-18T13:57:36;1.85;79.67
69393;SHT31;56582;44.624;20.378;2022-12-18T14:02:53;1.61;78.94
69393;SHT31;56582;44.624;20.378;2022-12-18T14:05:23;1.43;79.97
69393;SHT31;56582;44.624;20.378;2022-12-18T14:07:48;1.56;80.67
69393;SHT31;56582;44.624;20.378;2022-12-18T14:10:15;1.82;80.46
69393;SHT31;56582;44.624;20.378;2022-12-18T14:12:45;1.85;80.04
69393;SHT31;56582;44.624;20.378;2022-12-18T14:15:40;1.85;79.69
69393;SHT31;56582;44.624;20.378;2022-12-18T14:21:03;1.73;78.37
69393;SHT31;56582;44.624;20.378;2022-12-18T14:23:33;1.73;78.92
69393;SHT31;56582;44.624;20.378;2022-12-18T14:26:01;1.57;79.46
69393;SHT31;56582;44.624;20.378;2022-12-18T14:28:26;1.23;79.59
69393;SHT31;56582;44.624;20.378;2022-12-18T14:30:53;1.12;80.64
69393;SHT31;56582;44.624;20.378;2022-12-18T14:33:25;1.00;81.26
69393;SHT31;56582;44.624;20.378;2022-12-18T14:38:25;1.36;80.24
69393;SHT31;56582;44.624;20.378;2022-12-18T14:40:53;1.17;80.29
69393;SHT31;56582;44.624;20.378;2022-12-18T14:43:18;1.15;81.20
69393;SHT31;56582;44.624;20.378;2022-12-18T14:45:44;1.20;81.12
69393;SHT31;56582;44.624;20.378;2022-12-18T14:50:37;1.43;79.85
69393;SHT31;56582;44.624;20.378;2022-12-18T14:53:02;1.37;80.54
69393;SHT31;56582;44.624;20.378;2022-12-18T14:55:28;1.63;79.80
69393;SHT31;56582;44.624;20.378;2022-12-18T14:57:55;1.53;79.92
69393;SHT31;56582;44.624;20.378;2022-12-18T15:00:23;1.50;80.23
69393;SHT31;56582;44.624;20.378;2022-12-18T15:02:54;1.54;80.63
69393;SHT31;56582;44.624;20.378;2022-12-18T15:05:28;1.64;80.30
69393;SHT31;56582;44.624;20.378;2022-12-18T15:07:56;1.73;79.82
69393;SHT31;56582;44.624;20.378;2022-12-18T15:10:27;1.78;79.08
69393;SHT31;56582;44.624;20.378;2022-12-18T15:23:17;1.84;78.95
69393;SHT31;56582;44.624;20.378;2022-12-18T15:25:43;1.78;78.90
69393;SHT31;56582;44.624;20.378;2022-12-18T15:28:37;1.74;79.42
69393;SHT31;56582;44.624;20.378;2022-12-18T15:33:34;1.58;80.02
69393;SHT31;56582;44.624;20.378;2022-12-18T15:36:02;1.98;80.11
69393;SHT31;56582;44.624;20.378;2022-12-18T15:38:28;1.97;79.40
69393;SHT31;56582;44.624;20.378;2022-12-18T15:40:54;1.94;79.12
69393;SHT31;56582;44.624;20.378;2022-12-18T15:43:24;1.92;79.51
69393;SHT31;56582;44.624;20.378;2022-12-18T15:46:02;2.04;80.25
69393;SHT31;56582;44.624;20.378;2022-12-18T15:48:28;2.05;79.80
69393;SHT31;56582;44.624;20.378;2022-12-18T15:50:55;1.91;79.77
69393;SHT31;56582;44.624;20.378;2022-12-18T15:53:23;1.95;79.07
69393;SHT31;56582;44.624;20.378;2022-12-18T15:55:49;2.02;80.60
69393;SHT31;56582;44.624;20.378;2022-12-18T15:58:33;2.33;79.63
69393;SHT31;56582;44.624;20.378;2022-12-18T16:00:59;2.32;77.07
69393;SHT31;56582;44.624;20.378;2022-12-18T16:03:26;1.92;78.67
69393;SHT31;56582;44.624;20.378;2022-12-18T16:05:51;1.82;80.41
69393;SHT31;56582;44.624;20.378;2022-12-18T16:08:17;1.89;81.02
69393;SHT31;56582;44.624;20.378;2022-12-18T16:10:42;1.88;80.72
69393;SHT31;56582;44.624;20.378;2022-12-18T16:13:12;1.99;79.72
69393;SHT31;56582;44.624;20.378;2022-12-18T16:15:40;2.18;79.09
69393;SHT31;56582;44.624;20.378;2022-12-18T16:18:06;2.22;78.29
69393;SHT31;56582;44.624;20.378;2022-12-18T16:20:31;2.21;78.02
69393;SHT31;56582;44.624;20.378;2022-12-18T16:22:57;2.40;76.43
69393;SHT31;56582;44.624;20.378;2022-12-18T16:25:27;2.33;78.64
69393;SHT31;56582;44.624;20.378;2022-12-18T16:27:54;2.16;78.29
69393;SHT31;56582;44.624;20.378;2022-12-18T16:30:30;2.12;79.71
69393;SHT31;56582;44.624;20.378;2022-12-18T16:32:57;2.16;77.63
69393;SHT31;56582;44.624;20.378;2022-12-18T16:35:24;2.08;77.03
69393;SHT31;56582;44.624;20.378;2022-12-18T16:37:49;1.97;77.57
69393;SHT31;56582;44.624;20.378;2022-12-18T16:40:16;2.09;78.33
69393;SHT31;56582;44.624;20.378;2022-12-18T16:42:43;2.12;77.43
69393;SHT31;56582;44.624;20.378;2022-12-18T16:45:12;2.01;79.11
69393;SHT31;56582;44.624;20.378;2022-12-18T16:47:37;2.04;80.25
69393;SHT31;56582;44.624;20.378;2022-12-18T16:50:04;1.86;77.38
69393;SHT31;56582;44.624;20.378;2022-12-18T16:52:29;1.97;78.75
69393;SHT31;56582;44.624;20.378;2022-12-18T16:54:55;2.06;78.54
69393;SHT31;56582;44.624;20.378;2022-12-18T16:57:21;2.19;78.67
69393;SHT31;56582;44.624;20.378;2022-12-18T16:59:47;2.26;78.07
69393;SHT31;56582;44.624;20.378;2022-12-18T17:02:15;2.23;77.66
69393;SHT31;56582;44.624;20.378;2022-12-18T17:04:41;2.08;79.31
69393;SHT31;56582;44.624;20.378;2022-12-18T17:07:07;2.23;78.72
69393;SHT31;56582;44.624;20.378;2022-12-18T17:09:33;2.19;79.39
69393;SHT31;56582;44.624;20.378;2022-12-18T17:11:59;2.23;79.28
69393;SHT31;56582;44.624;20.378;2022-12-18T17:14:25;2.47;78.87
69393;SHT31;56582;44.624;20.378;2022-12-18T17:16:52;2.54;77.00
69393;SHT31;56582;44.624;20.378;2022-12-18T17:19:17;2.34;76.76
69393;SHT31;56582;44.624;20.378;2022-12-18T17:21:43;2.11;78.70
69393;SHT31;56582;44.624;20.378;2022-12-18T17:24:09;2.37;78.03
69393;SHT31;56582;44.624;20.378;2022-12-18T17:26:36;2.74;75.15
69393;SHT31;56582;44.624;20.378;2022-12-18T17:29:01;2.08;76.63
69393;SHT31;56582;44.624;20.378;2022-12-18T17:31:28;2.04;76.84
69393;SHT31;56582;44.624;20.378;2022-12-18T17:33:54;1.89;77.70
69393;SHT31;56582;44.624;20.378;2022-12-18T17:36:20;2.13;76.21
69393;SHT31;56582;44.624;20.378;2022-12-18T17:38:53;2.26;75.39
69393;SHT31;56582;44.624;20.378;2022-12-18T17:41:19;1.85;76.48
69393;SHT31;56582;44.624;20.378;2022-12-18T17:43:53;1.58;77.54
69393;SHT31;56582;44.624;20.378;2022-12-18T17:46:19;1.82;78.15
69393;SHT31;56582;44.624;20.378;2022-12-18T17:48:45;1.98;77.24
69393;SHT31;56582;44.624;20.378;2022-12-18T17:51:11;2.13;76.24
69393;SHT31;56582;44.624;20.378;2022-12-18T17:53:37;2.13;76.00
69393;SHT31;56582;44.624;20.378;2022-12-18T17:56:05;2.33;75.87